Time;durP1;ratioP1;P1;durP2;ratioP2;P2;SDS_P1;SDS_P2;PMS_P1;PMS_P2;Temp;Humidity;BMP_temperature;BMP_pressure;BME280_temperature;BME280_humidity;BME280_pressure;Samples;Min_cycle;Max_cycle;Signal;HPM_P1;HPM_P2
2023/04/26 00:02:21;;;;;;;4.53;3.85;;;;;;;12.47;99.81;98462.63;5052796;28;20075;-75
2023/04/26 00:04:54;;;;;;;6.07;3.75;;;;;;;12.32;100.00;98453.16;5051355;28;20033;-75
2023/04/26 00:07:21;;;;;;;5.60;4.40;;;;;;;12.26;100.00;98449.03;5052617;28;20129;-74
2023/04/26 00:09:47;;;;;;;7.00;4.55;;;;;;;12.24;100.00;98445.78;5049220;28;20033;-74
2023/04/26 00:12:12;;;;;;;5.47;4.57;;;;;;;12.36;100.00;98446.41;5033466;28;20515;-74
2023/04/26 00:14:38;;;;;;;6.47;4.72;;;;;;;12.36;100.00;98448.41;5032644;28;20021;-75
2023/04/26 00:17:04;;;;;;;6.13;5.00;;;;;;;12.34;100.00;98445.19;5032696;28;20032;-75
2023/04/26 00:19:31;;;;;;;6.90;6.15;;;;;;;12.45;100.00;98439.75;5033453;28;20408;-75
2023/04/26 00:21:56;;;;;;;10.50;7.97;;;;;;;12.55;100.00;98433.53;5036016;28;20029;-75
2023/04/26 00:24:22;;;;;;;9.77;7.18;;;;;;;12.64;100.00;98434.09;5032267;28;20112;-75
2023/04/26 00:26:47;;;;;;;6.32;5.32;;;;;;;12.61;99.31;98428.44;5031944;28;20125;-75
2023/04/26 00:29:12;;;;;;;6.85;4.15;;;;;;;12.73;99.20;98421.78;5035684;28;20028;-75
2023/04/26 00:31:38;;;;;;;4.72;3.90;;;;;;;12.63;97.24;98424.06;5037057;28;20515;-75
2023/04/26 00:34:03;;;;;;;5.50;3.58;;;;;;;12.45;95.40;98417.31;5032102;28;20017;-75
2023/04/26 00:36:31;;;;;;;3.28;2.90;;;;;;;12.68;94.29;98416.50;5032291;28;20029;-75
2023/04/26 00:38:56;;;;;;;3.38;3.08;;;;;;;12.72;93.18;98414.56;5035333;28;20155;-75
2023/04/26 00:41:23;;;;;;;4.22;3.17;;;;;;;12.82;92.43;98413.94;5040787;28;20029;-75
2023/04/26 00:43:48;;;;;;;2.92;2.50;;;;;;;12.82;90.72;98404.72;5031256;28;20049;-75
2023/04/26 00:46:14;;;;;;;5.20;3.03;;;;;;;12.81;89.34;98403.09;5032053;28;20036;-75
2023/04/26 00:48:40;;;;;;;4.72;2.70;;;;;;;12.88;88.23;98398.41;5031975;28;20029;-75
2023/04/26 00:51:06;;;;;;;3.47;2.65;;;;;;;12.95;87.19;98392.09;5034758;28;20025;-75
2023/04/26 00:53:34;;;;;;;4.03;2.75;;;;;;;12.90;87.46;98398.03;5031393;28;20032;-75
2023/04/26 00:56:00;;;;;;;4.47;2.70;;;;;;;12.95;87.71;98392.09;5031874;28;20369;-75
2023/04/26 00:58:26;;;;;;;9.30;3.50;;;;;;;12.87;87.75;98393.16;5032564;28;20380;-75
2023/04/26 01:00:51;;;;;;;4.75;2.40;;;;;;;12.89;88.69;98396.41;5045326;28;20037;-75
2023/04/26 01:03:17;;;;;;;3.38;2.55;;;;;;;12.94;88.01;98395.28;5031705;28;20056;-75
2023/04/26 01:05:43;;;;;;;2.53;2.33;;;;;;;12.75;89.01;98395.00;5030370;28;20045;-75
2023/04/26 01:08:09;;;;;;;3.13;2.67;;;;;;;12.75;88.42;98400.59;5038679;28;20025;-75
2023/04/26 01:10:35;;;;;;;2.83;2.60;;;;;;;12.75;88.06;98406.22;5047530;28;20463;-75
2023/04/26 01:13:02;;;;;;;2.22;2.00;;;;;;;12.79;86.82;98392.25;5031776;28;20240;-75
2023/04/26 01:15:29;;;;;;;2.53;2.17;;;;;;;12.86;85.90;98395.19;5031034;28;20033;-75
2023/04/26 01:17:56;;;;;;;2.45;2.15;;;;;;;12.88;85.09;98389.19;5031598;28;20052;-75
2023/04/26 01:20:22;;;;;;;3.95;3.08;;;;;;;12.92;85.29;98390.06;5032070;28;20086;-75
2023/04/26 01:22:47;;;;;;;3.85;2.13;;;;;;;12.93;85.15;98380.44;5030400;28;20029;-75
2023/04/26 01:25:13;;;;;;;2.30;2.05;;;;;;;12.96;84.76;98384.47;5031323;28;20063;-75
2023/04/26 01:27:39;;;;;;;3.10;2.42;;;;;;;12.70;84.63;98381.28;5030139;28;20025;-75
2023/04/26 01:30:05;;;;;;;2.75;2.03;;;;;;;12.88;83.87;98378.78;5031366;28;20420;-75
2023/04/26 01:32:30;;;;;;;4.03;2.72;;;;;;;12.82;84.35;98379.47;5033200;28;20037;-75
2023/04/26 01:34:56;;;;;;;2.75;2.10;;;;;;;12.81;84.61;98370.22;5029878;28;20084;-75
2023/04/26 01:37:21;;;;;;;3.72;2.30;;;;;;;12.84;85.05;98371.47;5031388;28;20029;-75
2023/04/26 01:39:47;;;;;;;3.10;2.65;;;;;;;12.77;85.97;98375.00;5031179;28;20021;-75
2023/04/26 01:42:12;;;;;;;3.30;2.17;;;;;;;12.68;86.51;98368.81;5047249;28;20047;-74
2023/04/26 01:44:38;;;;;;;6.63;2.70;;;;;;;12.21;87.83;98371.63;5050997;28;20112;-75
2023/04/26 01:47:03;;;;;;;6.38;4.07;;;;;;;11.81;89.30;98373.66;5049666;28;20024;-74
2023/04/26 01:49:29;;;;;;;4.47;3.90;;;;;;;11.77;90.80;98384.00;5031152;28;20155;-75
2023/04/26 01:51:54;;;;;;;6.95;3.72;;;;;;;11.72;90.33;98390.72;5031866;28;20033;-75
2023/04/26 01:54:20;;;;;;;4.32;3.67;;;;;;;11.51;89.77;98377.09;5031058;28;20063;-75
2023/04/26 01:56:46;;;;;;;3.47;2.80;;;;;;;11.42;89.79;98388.50;5031067;28;20032;-75
2023/04/26 01:59:11;;;;;;;4.95;2.65;;;;;;;11.56;89.51;98378.78;5031130;28;20484;-75
2023/04/26 02:01:37;;;;;;;5.68;2.25;;;;;;;11.61;88.98;98376.50;5043604;28;20032;-75
2023/04/26 02:04:05;;;;;;;2.17;1.98;;;;;;;11.65;87.98;98379.38;5036712;28;20030;-75
2023/04/26 02:06:31;;;;;;;2.83;2.17;;;;;;;11.69;87.37;98374.66;5034890;28;20025;-75
2023/04/26 02:08:56;;;;;;;3.85;2.60;;;;;;;11.70;87.79;98381.03;5034943;28;20030;-75
2023/04/26 02:11:22;;;;;;;4.57;2.80;;;;;;;11.75;87.81;98375.16;5044898;28;20017;-75
2023/04/26 02:13:47;;;;;;;8.88;2.80;;;;;;;11.68;87.92;98375.00;5054901;28;20420;-75
2023/04/26 02:16:14;;;;;;;4.30;2.58;;;;;;;11.70;88.79;98383.84;5054663;28;20044;-75
2023/04/26 02:18:40;;;;;;;5.80;3.85;;;;;;;11.73;88.17;98380.34;5054693;28;20031;-75
2023/04/26 02:21:11;;;;;;;17.42;6.85;;;;;;;11.65;87.61;98368.97;5039216;28;20021;-75
2023/04/26 02:23:36;;;;;;;9.07;3.90;;;;;;;11.55;88.00;98368.75;5034682;28;20079;-75
2023/04/26 02:26:02;;;;;;;4.53;2.97;;;;;;;11.51;88.40;98379.88;5034739;28;20018;-75
2023/04/26 02:28:28;;;;;;;6.07;2.78;;;;;;;11.50;89.26;98370.66;5034736;28;20021;-75
2023/04/26 02:30:55;;;;;;;5.47;3.03;;;;;;;11.35;89.66;98372.38;5040031;28;20040;-74
2023/04/26 02:33:21;;;;;;;3.83;3.40;;;;;;;11.25;90.97;98386.94;5054487;28;20025;-75
2023/04/26 02:35:47;;;;;;;7.85;3.17;;;;;;;11.01;92.63;98380.41;5041452;28;20029;-75
2023/04/26 02:38:12;;;;;;;3.83;2.63;;;;;;;11.11;92.69;98389.44;5034482;28;20025;-75
2023/04/26 02:40:38;;;;;;;4.38;2.60;;;;;;;11.10;92.06;98391.41;5037351;28;20079;-74
2023/04/26 02:43:04;;;;;;;4.15;3.05;;;;;;;11.01;92.01;98385.19;5054037;28;20060;-75
2023/04/26 02:45:29;;;;;;;3.25;2.78;;;;;;;10.97;91.42;98392.69;5049749;28;20037;-74
2023/04/26 02:47:55;;;;;;;4.60;3.25;;;;;;;10.90;92.00;98396.13;5034207;28;20018;-75
2023/04/26 02:50:21;;;;;;;4.18;3.63;;;;;;;10.94;92.39;98399.81;5033876;28;20029;-74
2023/04/26 02:52:46;;;;;;;3.45;3.15;;;;;;;10.86;92.83;98382.06;5046630;28;20025;-75
2023/04/26 02:55:11;;;;;;;7.22;3.60;;;;;;;10.69;93.23;98380.47;5053894;28;20029;-74
2023/04/26 02:57:37;;;;;;;3.45;3.15;;;;;;;10.71;94.17;98368.91;5054069;28;20100;-75
2023/04/26 03:00:04;;;;;;;7.60;4.55;;;;;;;10.74;93.42;98374.59;5052589;28;20021;-75
2023/04/26 03:02:30;;;;;;;7.50;3.67;;;;;;;10.63;93.92;98362.34;5035851;28;20056;-75
2023/04/26 03:04:55;;;;;;;3.42;2.95;;;;;;;10.51;94.48;98364.06;5033925;28;20022;-75
2023/04/26 03:07:21;;;;;;;3.63;2.92;;;;;;;10.43;95.74;98364.22;5033733;28;20041;-75
2023/04/26 03:09:47;;;;;;;6.03;2.65;;;;;;;10.59;95.26;98373.44;5033612;28;20036;-74
2023/04/26 03:12:12;;;;;;;7.97;3.75;;;;;;;10.55;95.55;98368.94;5033756;28;20519;-75
2023/04/26 03:14:38;;;;;;;4.80;3.78;;;;;;;10.58;95.57;98374.63;5033762;28;20124;-75
2023/04/26 03:17:03;;;;;;;5.72;3.60;;;;;;;10.44;95.84;98372.28;5033237;28;20036;-75
2023/04/26 03:19:29;;;;;;;10.43;4.18;;;;;;;10.18;97.11;98376.38;5041284;28;20490;-75
2023/04/26 03:21:55;;;;;;;4.38;3.97;;;;;;;10.06;98.32;98384.84;5041436;28;20038;-75
2023/04/26 03:24:21;;;;;;;4.50;3.80;;;;;;;10.05;98.70;98389.59;5033552;28;20029;-75
2023/04/26 03:26:47;;;;;;;7.90;4.82;;;;;;;10.12;99.75;98386.19;5033477;28;20033;-75
2023/04/26 03:29:12;;;;;;;6.65;5.70;;;;;;;10.05;98.92;98381.22;5037624;28;20029;-75
2023/04/26 03:31:38;;;;;;;8.05;7.20;;;;;;;9.97;98.91;98388.59;5051979;28;20562;-75
2023/04/26 03:34:04;;;;;;;5.40;4.88;;;;;;;9.96;99.25;98386.19;5053417;28;20036;-75
2023/04/26 03:36:30;;;;;;;5.32;4.32;;;;;;;9.94;99.30;98385.69;5053345;28;20408;-75
2023/04/26 03:38:55;;;;;;;13.93;4.65;;;;;;;9.94;99.02;98391.28;5050753;28;20021;-75
2023/04/26 03:41:21;;;;;;;10.95;4.50;;;;;;;10.16;99.50;98392.69;5031830;28;20037;-74
2023/04/26 03:43:47;;;;;;;5.57;4.53;;;;;;;10.46;97.85;98395.09;5033224;28;20052;-75
2023/04/26 03:46:13;;;;;;;5.15;4.35;;;;;;;10.63;96.31;98407.09;5032455;28;20056;-74
2023/04/26 03:48:39;;;;;;;9.38;4.65;;;;;;;10.71;95.75;98408.88;5034644;28;20312;-74
2023/04/26 03:51:05;;;;;;;5.82;5.05;;;;;;;10.85;95.21;98408.41;5047860;28;20131;-75
2023/04/26 03:53:30;;;;;;;7.00;5.40;;;;;;;10.91;94.51;98428.53;5033065;28;20108;-75
2023/04/26 03:55:56;;;;;;;11.13;5.78;;;;;;;10.93;93.55;98403.78;5032233;28;20071;-74
2023/04/26 03:58:23;;;;;;;7.35;5.25;;;;;;;11.04;92.63;98404.84;5033084;28;20404;-75
2023/04/26 04:00:49;;;;;;;4.93;4.20;;;;;;;11.09;92.13;98415.75;5052007;28;20411;-74
2023/04/26 04:03:14;;;;;;;7.50;5.30;;;;;;;11.03;90.88;98402.41;5052667;28;20029;-75
2023/04/26 04:05:40;;;;;;;11.32;7.85;;;;;;;10.99;90.91;98412.72;5052791;28;20056;-75
2023/04/26 04:08:05;;;;;;;11.82;6.75;;;;;;;11.09;91.16;98412.97;5052372;28;20033;-75
2023/04/26 04:10:31;;;;;;;11.32;6.07;;;;;;;11.28;90.44;98416.16;5035300;28;20095;-75
2023/04/26 04:12:56;;;;;;;5.65;3.38;;;;;;;11.57;89.66;98416.81;5031854;28;20025;-74
2023/04/26 04:15:22;;;;;;;5.00;3.28;;;;;;;11.62;88.57;98413.69;5032739;28;20033;-74
2023/04/26 04:17:47;;;;;;;3.00;2.70;;;;;;;11.83;87.31;98410.56;5032640;28;20040;-75
2023/04/26 04:20:13;;;;;;;4.95;3.30;;;;;;;12.11;86.48;98417.91;5032478;28;20037;-75
2023/04/26 04:22:39;;;;;;;4.97;3.28;;;;;;;12.35;85.09;98418.75;5048426;28;20032;-75
2023/04/26 04:25:06;;;;;;;3.65;3.00;;;;;;;12.63;84.12;98418.47;5052341;28;20052;-75
2023/04/26 04:27:32;;;;;;;8.10;5.07;;;;;;;12.77;83.08;98417.88;5032392;28;20030;-74
2023/04/26 04:29:57;;;;;;;21.73;10.75;;;;;;;12.93;82.00;98425.34;5032959;28;20032;-75
2023/04/26 04:32:23;;;;;;;24.60;13.25;;;;;;;13.12;81.31;98427.25;5032190;28;20114;-75
2023/04/26 04:34:50;;;;;;;24.25;11.70;;;;;;;13.24;80.54;98425.41;5030927;28;20032;-75
2023/04/26 04:37:17;;;;;;;8.23;5.72;;;;;;;13.10;79.17;98420.38;5032199;28;20492;-75
2023/04/26 04:39:42;;;;;;;8.20;5.90;;;;;;;13.03;79.25;98421.91;5032258;28;20407;-75
2023/04/26 04:42:09;;;;;;;7.35;4.32;;;;;;;12.73;79.51;98427.41;5050278;28;20060;-75
2023/04/26 04:44:35;;;;;;;4.93;4.15;;;;;;;12.54;81.38;98417.06;5047247;28;20424;-75
2023/04/26 04:47:01;;;;;;;4.45;3.60;;;;;;;12.69;81.25;98420.94;5031302;28;20520;-74
2023/04/26 04:49:26;;;;;;;4.57;3.50;;;;;;;12.38;81.70;98423.63;5031894;28;20028;-75
2023/04/26 04:51:52;;;;;;;7.68;4.22;;;;;;;12.55;82.28;98422.31;5036192;28;20029;-75
2023/04/26 04:54:18;;;;;;;6.28;4.25;;;;;;;12.61;82.32;98418.03;5032029;28;20139;-75
2023/04/26 04:56:44;;;;;;;5.18;3.55;;;;;;;12.72;82.32;98420.19;5031751;28;20029;-74
2023/04/26 04:59:10;;;;;;;4.43;3.47;;;;;;;12.68;82.58;98424.94;5031793;28;20456;-75
2023/04/26 05:01:37;;;;;;;4.05;3.65;;;;;;;12.72;82.79;98429.41;5045219;28;20112;-75
2023/04/26 05:04:03;;;;;;;4.95;4.30;;;;;;;12.63;82.99;98421.25;5043331;28;20051;-75
2023/04/26 05:06:31;;;;;;;4.65;3.75;;;;;;;12.48;84.70;98411.78;5046631;28;20033;-75
2023/04/26 05:08:56;;;;;;;5.25;3.63;;;;;;;12.41;85.53;98411.66;5049502;28;20024;-75
2023/04/26 05:11:22;;;;;;;4.80;3.33;;;;;;;12.35;87.14;98401.94;5037220;28;20035;-75
2023/04/26 05:13:48;;;;;;;5.18;3.58;;;;;;;11.79;88.52;98404.06;5031553;28;20024;-75
2023/04/26 05:16:14;;;;;;;4.60;4.05;;;;;;;11.55;89.53;98407.97;5031616;28;20021;-75
2023/04/26 05:18:39;;;;;;;8.18;4.07;;;;;;;11.71;90.76;98405.91;5031388;28;20026;-76
2023/04/26 05:21:05;;;;;;;6.70;3.30;;;;;;;11.84;91.40;98397.34;5034021;28;20539;-75
2023/04/26 05:23:30;;;;;;;5.70;3.50;;;;;;;12.11;90.53;98391.88;5038383;28;20059;-71
2023/04/26 05:26:00;;;;;;;5.38;4.50;;;;;;;12.23;90.16;98404.91;5051715;28;20104;-74
2023/04/26 05:28:26;;;;;;;5.53;3.92;;;;;;;12.41;90.03;98408.84;5050324;28;20399;-77
2023/04/26 05:30:51;;;;;;;7.53;4.38;;;;;;;12.75;89.43;98408.22;5045721;28;20048;-75
2023/04/26 05:33:17;;;;;;;11.23;3.55;;;;;;;12.92;87.34;98396.47;5046272;28;20017;-76
2023/04/26 05:35:42;;;;;;;6.10;3.67;;;;;;;13.19;85.39;98404.09;5042873;28;20033;-79
2023/04/26 05:38:08;;;;;;;7.97;4.32;;;;;;;13.44;84.17;98410.06;5042016;28;20040;-79
2023/04/26 05:40:33;;;;;;;5.90;4.22;;;;;;;13.43;82.08;98408.41;5045162;28;20029;-79
2023/04/26 05:42:59;;;;;;;3.95;3.50;;;;;;;13.65;81.26;98413.56;5040874;28;20106;-79
2023/04/26 05:45:24;;;;;;;6.07;3.60;;;;;;;14.01;82.22;98414.00;5042795;28;20057;-80
2023/04/26 05:47:50;;;;;;;6.80;4.53;;;;;;;14.13;81.42;98405.28;5051211;28;20025;-76
2023/04/26 05:50:16;;;;;;;7.93;4.80;;;;;;;14.16;76.74;98398.91;5050214;28;20048;-76
2023/04/26 05:52:41;;;;;;;9.25;4.38;;;;;;;13.67;77.54;98405.56;5033444;28;20030;-76
2023/04/26 05:55:07;;;;;;;5.47;3.92;;;;;;;13.86;77.66;98413.81;5033547;28;20020;-76
2023/04/26 05:57:33;;;;;;;13.30;6.03;;;;;;;13.54;75.92;98402.16;5040140;28;20032;-77
2023/04/26 05:59:59;;;;;;;6.75;4.15;;;;;;;13.45;77.08;98400.47;5040649;28;20016;-74
2023/04/26 06:02:25;;;;;;;5.35;3.50;;;;;;;13.26;76.59;98409.78;5030258;28;20132;-74
2023/04/26 06:04:50;;;;;;;7.00;4.63;;;;;;;13.19;79.06;98409.69;5040486;28;20034;-73
2023/04/26 06:07:16;;;;;;;5.50;4.28;;;;;;;13.06;79.85;98411.91;5039814;28;20087;-72
2023/04/26 06:09:42;;;;;;;4.05;3.65;;;;;;;12.78;77.99;98416.69;5030234;28;20075;-78
2023/04/26 06:12:07;;;;;;;4.53;3.00;;;;;;;12.71;78.33;98416.59;5034714;28;20083;-71
2023/04/26 06:14:33;;;;;;;4.32;3.47;;;;;;;12.55;78.75;98419.50;5037038;28;20036;-71
2023/04/26 06:16:58;;;;;;;4.53;3.63;;;;;;;12.39;78.30;98411.22;5041680;28;20406;-74
2023/04/26 06:19:24;;;;;;;4.63;3.40;;;;;;;12.34;79.84;98422.75;5037119;28;20032;-74
2023/04/26 06:21:51;;;;;;;10.55;3.95;;;;;;;12.50;80.68;98414.22;5044042;28;20396;-76
2023/04/26 06:24:16;;;;;;;4.22;3.45;;;;;;;12.56;79.96;98415.53;5037780;28;20032;-71
2023/04/26 06:26:41;;;;;;;3.88;3.42;;;;;;;12.38;78.45;98409.59;5042012;28;20025;-71
2023/04/26 06:29:07;;;;;;;4.68;3.67;;;;;;;12.58;79.53;98410.34;5027301;28;20029;-70
2023/04/26 06:31:32;;;;;;;6.20;4.15;;;;;;;12.70;79.32;98414.97;5029763;28;20041;-69
2023/04/26 06:33:58;;;;;;;6.18;4.70;;;;;;;12.71;80.95;98410.16;5040111;28;20535;-71
2023/04/26 06:36:24;;;;;;;5.85;4.70;;;;;;;12.78;82.49;98405.47;5035889;28;20045;-71
2023/04/26 06:38:50;;;;;;;11.25;5.90;;;;;;;12.93;83.37;98411.31;5027752;28;20033;-71
2023/04/26 06:41:15;;;;;;;6.57;5.35;;;;;;;12.82;80.02;98411.13;5027477;28;20045;-73
2023/04/26 06:43:41;;;;;;;9.35;4.72;;;;;;;12.75;77.86;98409.03;5028066;28;20045;-71
2023/04/26 06:46:06;;;;;;;7.38;6.00;;;;;;;13.10;80.37;98395.94;5033391;28;20037;-71
2023/04/26 06:48:32;;;;;;;9.30;6.65;;;;;;;13.34;76.53;98402.28;5030739;28;20090;-71
2023/04/26 06:50:57;;;;;;;7.43;4.43;;;;;;;13.55;76.25;98404.59;5040989;28;20029;-70
2023/04/26 06:53:23;;;;;;;11.80;8.18;;;;;;;13.54;75.43;98405.81;5052281;28;20048;-70
2023/04/26 06:55:48;;;;;;;13.15;6.88;;;;;;;13.75;75.80;98407.25;5040464;28;20056;-69
2023/04/26 06:58:14;;;;;;;11.20;7.55;;;;;;;13.49;74.55;98406.13;5035351;28;20033;-70
2023/04/26 07:00:40;;;;;;;11.13;6.47;;;;;;;13.42;76.26;98411.63;5029187;28;20052;-71
2023/04/26 07:03:05;;;;;;;12.95;7.28;;;;;;;13.41;76.74;98399.56;5040329;28;20063;-70
2023/04/26 07:05:31;;;;;;;14.18;8.18;;;;;;;13.41;77.67;98404.41;5039989;28;20041;-73
2023/04/26 07:07:56;;;;;;;15.80;8.60;;;;;;;13.41;78.05;98408.00;5035194;28;20029;-74
2023/04/26 07:10:22;;;;;;;21.85;12.00;;;;;;;13.54;78.27;98407.78;5040222;28;20029;-73
2023/04/26 07:12:47;;;;;;;15.23;9.55;;;;;;;13.56;79.16;98411.84;5042650;28;20131;-72
2023/04/26 07:15:13;;;;;;;12.43;7.38;;;;;;;13.49;78.15;98417.34;5032633;28;20100;-72
2023/04/26 07:17:38;;;;;;;11.80;7.50;;;;;;;13.64;78.35;98414.75;5044991;28;20405;-72
2023/04/26 07:20:04;;;;;;;11.45;6.35;;;;;;;13.69;77.87;98408.78;5041232;28;20032;-70
2023/04/26 07:22:30;;;;;;;9.45;6.30;;;;;;;13.69;77.17;98411.59;5039175;28;20036;-73
2023/04/26 07:24:55;;;;;;;10.55;6.47;;;;;;;13.82;75.08;98401.72;5031971;28;20057;-76
2023/04/26 07:27:21;;;;;;;13.38;6.95;;;;;;;13.98;76.12;98400.69;5031824;28;20094;-70
2023/04/26 07:29:46;;;;;;;8.23;6.25;;;;;;;14.08;73.30;98397.19;5032454;28;20108;-66
2023/04/26 07:32:12;;;;;;;8.05;5.35;;;;;;;14.65;71.44;98404.56;5031258;28;20404;-75
2023/04/26 07:34:37;;;;;;;8.40;5.28;;;;;;;15.06;70.14;98408.53;5030438;28;20170;-71
2023/04/26 07:37:03;;;;;;;6.00;5.07;;;;;;;15.53;67.62;98409.63;5036426;28;20463;-71
2023/04/26 07:39:28;;;;;;;11.48;5.95;;;;;;;15.87;68.33;98408.59;5034762;28;20128;-74
2023/04/26 07:41:54;;;;;;;5.85;4.43;;;;;;;15.35;63.76;98409.53;5028434;28;20029;-70
2023/04/26 07:44:19;;;;;;;10.85;5.53;;;;;;;15.88;66.08;98417.84;5030208;28;20045;-71
2023/04/26 07:46:45;;;;;;;6.10;5.07;;;;;;;16.19;63.54;98416.34;5029929;28;20030;-73
2023/04/26 07:49:10;;;;;;;8.50;5.03;;;;;;;15.82;62.51;98421.06;5030160;28;20522;-74
2023/04/26 07:51:36;;;;;;;5.85;4.95;;;;;;;15.73;62.84;98420.59;5035123;28;20040;-71
2023/04/26 07:54:01;;;;;;;5.47;4.10;;;;;;;15.22;62.26;98411.06;5032439;28;20022;-72
2023/04/26 07:56:27;;;;;;;9.52;4.70;;;;;;;15.04;63.69;98422.19;5032607;28;20069;-74
2023/04/26 07:58:52;;;;;;;14.85;5.95;;;;;;;15.27;64.88;98419.94;5050432;28;20036;-74
2023/04/26 08:01:18;;;;;;;10.77;6.70;;;;;;;15.40;66.90;98416.81;5050153;28;20058;-72
2023/04/26 08:03:43;;;;;;;6.20;5.57;;;;;;;15.55;65.56;98412.84;5053503;28;20028;-71
2023/04/26 08:06:09;;;;;;;12.88;5.35;;;;;;;15.68;65.79;98409.69;5045642;28;20029;-71
2023/04/26 08:08:41;;;;;;;6.68;5.15;;;;;;;15.28;63.41;98410.28;5030137;28;20029;-68
2023/04/26 08:11:07;;;;;;;9.02;5.13;;;;;;;15.28;65.15;98415.13;5034321;28;20037;-72
2023/04/26 08:13:33;;;;;;;6.93;4.53;;;;;;;15.39;61.60;98410.38;5011174;28;20033;-74
2023/04/26 08:15:58;;;;;;;8.30;4.88;;;;;;;15.84;59.90;98415.00;5025256;28;20044;-77
2023/04/26 08:18:24;;;;;;;18.50;5.75;;;;;;;16.44;60.46;98409.97;5030937;28;20078;-77
2023/04/26 08:20:50;;;;;;;7.28;4.43;;;;;;;16.81;57.30;98402.34;5035288;28;20025;-75
2023/04/26 08:23:15;;;;;;;6.05;4.10;;;;;;;16.83;56.59;98397.91;5032224;28;20166;-72
2023/04/26 08:25:41;;;;;;;10.23;4.20;;;;;;;17.23;55.63;98400.69;5030305;28;20091;-74
2023/04/26 08:28:07;;;;;;;5.88;4.40;;;;;;;17.77;54.72;98399.75;5034426;28;20035;-74
2023/04/26 08:30:33;;;;;;;5.15;4.50;;;;;;;17.45;53.15;98392.19;5035170;28;20033;-73
2023/04/26 08:32:58;;;;;;;5.30;4.63;;;;;;;17.58;53.85;98391.72;5034279;28;20107;-73
2023/04/26 08:35:24;;;;;;;5.68;4.57;;;;;;;16.89;53.15;98380.53;5037634;28;20025;-72
2023/04/26 08:37:50;;;;;;;6.63;4.65;;;;;;;17.34;56.78;98385.75;5027318;28;20033;-72
2023/04/26 08:40:22;;;;;;;7.28;4.22;;;;;;;17.54;55.16;98388.91;5029410;28;20052;-76
2023/04/26 08:42:48;;;;;;;8.23;5.22;;;;;;;17.59;55.14;98376.38;5024877;28;20060;-76
2023/04/26 08:45:15;;;;;;;6.35;4.28;;;;;;;17.05;54.49;98383.00;5025578;28;20044;-75
2023/04/26 08:47:47;;;;;;;8.88;5.53;;;;;;;17.04;56.72;98382.16;5029772;28;20033;-74
2023/04/26 08:50:14;;;;;;;6.10;4.82;;;;;;;16.81;56.41;98382.56;5026070;28;20045;-74
2023/04/26 08:52:41;;;;;;;6.03;5.32;;;;;;;17.22;55.95;98384.97;5021826;28;20040;-75
2023/04/26 08:55:08;;;;;;;10.38;5.85;;;;;;;17.02;56.53;98383.81;5028814;28;20025;-78
2023/04/26 08:57:35;;;;;;;7.38;5.50;;;;;;;17.44;55.66;98378.47;5031568;28;20034;-75
2023/04/26 09:00:04;;;;;;;4.93;4.35;;;;;;;17.62;51.02;98381.25;5028343;28;20037;-77
2023/04/26 09:02:30;;;;;;;6.60;4.78;;;;;;;17.71;53.05;98383.63;5040160;28;20051;-76
2023/04/26 09:04:56;;;;;;;5.07;4.57;;;;;;;17.44;53.70;98387.75;5022335;28;20060;-75
2023/04/26 09:07:34;;;;;;;12.82;6.10;;;;;;;17.58;54.09;98388.91;5031484;28;20155;-76
2023/04/26 09:10:03;;;;;;;4.40;3.95;;;;;;;17.52;50.00;98386.50;5052517;28;20063;-77
2023/04/26 09:12:28;;;;;;;4.95;4.45;;;;;;;17.70;50.03;98379.19;5036234;28;20047;-75
2023/04/26 09:14:55;;;;;;;12.95;5.70;;;;;;;18.04;50.01;98387.13;5031239;28;20025;-76
2023/04/26 09:17:40;;;;;;;6.63;4.63;;;;;;;17.79;51.55;98371.03;5031713;28;20033;-75
2023/04/26 09:20:26;;;;;;;4.70;4.30;;;;;;;17.67;51.04;98380.81;5031401;28;20116;-74
2023/04/26 09:23:12;;;;;;;5.93;5.32;;;;;;;17.65;51.26;98383.25;5028870;28;20036;-74
2023/04/26 09:25:38;;;;;;;5.72;4.88;;;;;;;17.86;50.27;98379.50;5033548;28;20045;-73
2023/04/26 09:28:21;;;;;;;6.70;4.07;;;;;;;17.63;50.93;98375.16;5035955;28;20107;-73
2023/04/26 09:30:47;;;;;;;6.50;3.50;;;;;;;17.62;49.80;98376.38;5047987;28;20035;-76
2023/04/26 09:33:13;;;;;;;5.03;4.53;;;;;;;17.66;48.05;98379.97;5039923;28;20021;-75
2023/04/26 09:35:40;;;;;;;5.20;4.70;;;;;;;17.90;48.86;98377.47;5038346;28;20439;-77
2023/04/26 09:38:14;;;;;;;7.57;4.60;;;;;;;17.85;49.39;98374.25;5042789;28;20062;-72
2023/04/26 09:40:47;;;;;;;5.65;5.05;;;;;;;18.47;48.41;98367.03;5041096;28;20448;-74
2023/04/26 09:43:19;;;;;;;6.30;4.70;;;;;;;18.51;46.56;98369.84;5035415;28;20558;-73
2023/04/26 09:45:51;;;;;;;5.70;5.20;;;;;;;18.56;48.85;98372.22;5039466;28;20112;-73
2023/04/26 09:48:22;;;;;;;9.77;5.00;;;;;;;18.65;46.49;98372.56;5039415;28;20032;-73
2023/04/26 09:50:53;;;;;;;6.38;4.80;;;;;;;18.90;46.64;98360.22;5038296;28;20404;-72
2023/04/26 09:53:30;;;;;;;6.65;5.32;;;;;;;19.04;47.66;98369.84;5038304;28;20032;-74
2023/04/26 09:56:06;;;;;;;5.20;4.70;;;;;;;18.14;47.13;98372.09;5038280;28;20063;-73
2023/04/26 09:58:31;;;;;;;14.95;5.40;;;;;;;18.33;48.17;98365.09;5028165;28;20033;-69
2023/04/26 10:00:58;;;;;;;6.15;5.55;;;;;;;17.89;48.46;98364.53;5021033;28;25033;-73
2023/04/26 10:03:24;;;;;;;7.32;5.68;;;;;;;17.99;48.93;98368.53;5017354;28;20021;-72
2023/04/26 10:05:49;;;;;;;11.35;5.88;;;;;;;17.76;49.31;98371.88;5003566;28;20030;-72
2023/04/26 10:08:15;;;;;;;12.40;6.40;;;;;;;18.00;49.58;98361.66;5008185;28;20033;-73
2023/04/26 10:10:41;;;;;;;19.98;5.93;;;;;;;17.98;49.23;98360.47;5022021;28;20156;-72
2023/04/26 10:13:07;;;;;;;6.43;4.82;;;;;;;18.13;49.20;98359.19;5012505;28;20039;-73
2023/04/26 10:15:34;;;;;;;6.50;5.63;;;;;;;17.44;48.12;98353.03;5023204;28;20292;-72
2023/04/26 10:17:59;;;;;;;7.60;5.88;;;;;;;17.18;49.37;98347.44;5012703;28;20038;-74
2023/04/26 10:20:27;;;;;;;8.02;6.25;;;;;;;17.18;52.25;98352.28;5019390;28;20028;-74
2023/04/26 10:23:02;;;;;;;8.40;5.50;;;;;;;17.19;52.33;98349.06;5008861;28;20095;-74
2023/04/26 10:25:38;;;;;;;8.82;6.00;;;;;;;16.61;51.98;98340.63;5028290;28;20095;-72
2023/04/26 10:28:04;;;;;;;9.07;6.20;;;;;;;16.89;53.52;98338.19;5034744;28;20029;-75
2023/04/26 10:30:31;;;;;;;34.13;7.10;;;;;;;17.19;53.37;98346.22;5032929;28;20030;-73
2023/04/26 10:32:59;;;;;;;8.60;5.72;;;;;;;17.29;53.42;98343.78;5037132;28;20056;-74
2023/04/26 10:35:26;;;;;;;8.90;6.03;;;;;;;16.75;54.47;98344.66;5034445;28;20028;-72
2023/04/26 10:38:00;;;;;;;8.52;6.15;;;;;;;16.37;54.52;98343.03;5047915;28;20032;-74
2023/04/26 10:40:37;;;;;;;12.27;6.63;;;;;;;16.45;54.23;98341.03;5032174;28;20136;-75
2023/04/26 10:45:39;;;;;;;10.73;8.00;;;;;;;17.01;53.17;98343.44;5035920;28;20118;-74
2023/04/26 10:48:18;;;;;;;7.32;6.28;;;;;;;16.84;52.14;98347.88;5036075;28;20029;-72
2023/04/26 10:51:16;;;;;;;9.05;5.88;;;;;;;16.92;53.16;98357.97;5031768;28;20419;-78
2023/04/26 10:53:47;;;;;;;8.25;6.05;;;;;;;16.82;53.12;98355.94;5033647;28;20389;-76
2023/04/26 10:56:22;;;;;;;10.32;7.00;;;;;;;16.76;52.23;98351.91;5043264;28;20048;-79
2023/04/26 10:58:48;;;;;;;7.15;5.65;;;;;;;16.61;52.29;98337.00;5031321;28;20108;-77
2023/04/26 11:01:15;;;;;;;6.40;5.35;;;;;;;16.55;52.75;98343.03;5036997;28;20028;-77
2023/04/26 11:03:42;;;;;;;10.23;5.60;;;;;;;16.55;50.88;98342.25;5038968;28;20025;-77
2023/04/26 11:06:09;;;;;;;5.60;5.07;;;;;;;16.77;50.83;98350.69;5031159;28;20036;-77
2023/04/26 11:08:35;;;;;;;5.70;5.10;;;;;;;16.60;50.13;98338.22;5038123;28;20154;-77
2023/04/26 11:11:01;;;;;;;5.82;4.80;;;;;;;16.43;50.18;98349.09;5037981;28;20025;-73
2023/04/26 11:13:29;;;;;;;5.57;4.63;;;;;;;16.07;50.67;98340.59;5031147;28;20028;-73
2023/04/26 11:16:06;;;;;;;6.38;4.25;;;;;;;15.91;52.86;98346.59;5030549;28;20025;-74
2023/04/26 11:18:32;;;;;;;10.57;5.00;;;;;;;15.76;53.47;98354.97;5034060;28;20424;-75
2023/04/26 11:20:58;;;;;;;7.05;4.88;;;;;;;15.71;52.54;98356.16;5035418;28;20017;-75
2023/04/26 11:23:28;;;;;;;5.63;4.72;;;;;;;15.75;52.67;98358.19;5030364;28;20025;-76
2023/04/26 11:26:07;;;;;;;5.38;4.55;;;;;;;15.82;54.19;98361.03;5036961;28;20064;-76
2023/04/26 11:28:35;;;;;;;6.03;4.78;;;;;;;15.75;54.32;98358.19;5044265;28;20028;-76
2023/04/26 11:31:06;;;;;;;5.78;4.43;;;;;;;15.60;52.35;98365.78;5047354;28;20479;-76
2023/04/26 11:33:33;;;;;;;7.40;4.32;;;;;;;15.58;52.60;98361.34;5030321;28;20021;-76